sensor_id;sensor_type;location;lat;lon;timestamp;temperature;humidity
40676;DHT22;26359;48.750;9.314;2023-02-26T00:00:16;1.10;99.90
40676;DHT22;26359;48.750;9.314;2023-02-26T00:02:45;1.10;99.90
40676;DHT22;26359;48.750;9.314;2023-02-26T00:05:12;1.00;99.90
40676;DHT22;26359;48.750;9.314;2023-02-26T00:07:39;1.00;99.90
40676;DHT22;26359;48.750;9.314;2023-02-26T00:10:06;1.00;99.90
40676;DHT22;26359;48.750;9.314;2023-02-26T00:12:32;1.00;99.90
40676;DHT22;26359;48.750;9.314;2023-02-26T00:14:58;1.00;99.90
40676;DHT22;26359;48.750;9.314;2023-02-26T00:17:44;1.00;99.90
40676;DHT22;26359;48.750;9.314;2023-02-26T00:20:13;0.90;99.90
40676;DHT22;26359;48.750;9.314;2023-02-26T00:22:41;0.90;99.90
40676;DHT22;26359;48.750;9.314;2023-02-26T00:25:07;0.90;99.90
40676;DHT22;26359;48.750;9.314;2023-02-26T00:27:33;0.90;99.90
40676;DHT22;26359;48.750;9.314;2023-02-26T00:29:58;0.90;99.90
40676;DHT22;26359;48.750;9.314;2023-02-26T00:32:24;0.90;99.90
40676;DHT22;26359;48.750;9.314;2023-02-26T00:34:50;0.90;99.90
40676;DHT22;26359;48.750;9.314;2023-02-26T00:37:56;0.80;99.90
40676;DHT22;26359;48.750;9.314;2023-02-26T00:43:04;0.80;99.90
40676;DHT22;26359;48.750;9.314;2023-02-26T00:45:30;0.80;99.90
40676;DHT22;26359;48.750;9.314;2023-02-26T00:48:17;0.80;99.90
40676;DHT22;26359;48.750;9.314;2023-02-26T00:50:55;0.70;99.90
40676;DHT22;26359;48.750;9.314;2023-02-26T00:54:12;0.70;99.90
40676;DHT22;26359;48.750;9.314;2023-02-26T00:56:17;0.70;99.90
40676;DHT22;26359;48.750;9.314;2023-02-26T00:58:43;0.70;99.90
40676;DHT22;26359;48.750;9.314;2023-02-26T01:01:08;0.70;99.90
40676;DHT22;26359;48.750;9.314;2023-02-26T01:03:34;0.70;99.90
40676;DHT22;26359;48.750;9.314;2023-02-26T01:06:00;0.70;99.90
40676;DHT22;26359;48.750;9.314;2023-02-26T01:09:36;0.70;99.90
40676;DHT22;26359;48.750;9.314;2023-02-26T01:11:32;0.70;99.90
40676;DHT22;26359;48.750;9.314;2023-02-26T01:13:58;0.60;99.90
40676;DHT22;26359;48.750;9.314;2023-02-26T01:16:26;0.60;99.90
40676;DHT22;26359;48.750;9.314;2023-02-26T01:19:01;0.60;99.90
40676;DHT22;26359;48.750;9.314;2023-02-26T01:21:35;0.60;99.90
40676;DHT22;26359;48.750;9.314;2023-02-26T01:24:04;0.60;99.90
40676;DHT22;26359;48.750;9.314;2023-02-26T01:26:30;0.60;99.90
40676;DHT22;26359;48.750;9.314;2023-02-26T01:28:56;0.60;99.90
40676;DHT22;26359;48.750;9.314;2023-02-26T01:31:38;0.50;99.90
40676;DHT22;26359;48.750;9.314;2023-02-26T01:34:43;0.50;99.90
40676;DHT22;26359;48.750;9.314;2023-02-26T01:37:30;0.50;99.90
40676;DHT22;26359;48.750;9.314;2023-02-26T01:42:50;0.50;99.90
40676;DHT22;26359;48.750;9.314;2023-02-26T01:45:20;0.40;99.90
40676;DHT22;26359;48.750;9.314;2023-02-26T01:48:42;0.40;99.90
40676;DHT22;26359;48.750;9.314;2023-02-26T01:50:41;0.40;99.90
40676;DHT22;26359;48.750;9.314;2023-02-26T01:53:21;0.30;99.90
40676;DHT22;26359;48.750;9.314;2023-02-26T01:55:57;0.30;99.90
40676;DHT22;26359;48.750;9.314;2023-02-26T01:58:26;0.30;99.90
40676;DHT22;26359;48.750;9.314;2023-02-26T02:00:55;0.20;99.90
40676;DHT22;26359;48.750;9.314;2023-02-26T02:03:21;0.20;99.90
40676;DHT22;26359;48.750;9.314;2023-02-26T02:05:55;0.10;99.90
40676;DHT22;26359;48.750;9.314;2023-02-26T02:08:23;0.10;99.90
40676;DHT22;26359;48.750;9.314;2023-02-26T02:10:49;0.10;99.90
40676;DHT22;26359;48.750;9.314;2023-02-26T02:27:34;0.00;99.90
40676;DHT22;26359;48.750;9.314;2023-02-26T02:32:55;0.10;99.90
40676;DHT22;26359;48.750;9.314;2023-02-26T02:35:50;0.00;99.90
40676;DHT22;26359;48.750;9.314;2023-02-26T02:38:33;0.00;99.90
40676;DHT22;26359;48.750;9.314;2023-02-26T02:41:23;0.00;99.90
40676;DHT22;26359;48.750;9.314;2023-02-26T02:43:50;-0.10;99.90
40676;DHT22;26359;48.750;9.314;2023-02-26T02:46:30;-0.10;99.90
40676;DHT22;26359;48.750;9.314;2023-02-26T02:49:00;-0.10;99.90
40676;DHT22;26359;48.750;9.314;2023-02-26T02:51:38;-0.10;99.90
40676;DHT22;26359;48.750;9.314;2023-02-26T02:54:16;-0.10;99.90
40676;DHT22;26359;48.750;9.314;2023-02-26T02:56:46;-0.10;99.90
40676;DHT22;26359;48.750;9.314;2023-02-26T02:59:21;-0.10;99.90
40676;DHT22;26359;48.750;9.314;2023-02-26T03:01:50;-0.20;99.90
40676;DHT22;26359;48.750;9.314;2023-02-26T03:04:18;-0.20;99.90
40676;DHT22;26359;48.750;9.314;2023-02-26T03:06:44;-0.20;99.90
40676;DHT22;26359;48.750;9.314;2023-02-26T03:09:11;-0.30;99.90
40676;DHT22;26359;48.750;9.314;2023-02-26T03:11:37;-0.30;99.90
40676;DHT22;26359;48.750;9.314;2023-02-26T03:14:04;-0.30;99.90
40676;DHT22;26359;48.750;9.314;2023-02-26T03:19:30;-0.30;99.90
40676;DHT22;26359;48.750;9.314;2023-02-26T03:25:13;-0.40;99.90
40676;DHT22;26359;48.750;9.314;2023-02-26T03:28:02;-0.40;99.90
40676;DHT22;26359;48.750;9.314;2023-02-26T03:30:46;-0.40;99.90
40676;DHT22;26359;48.750;9.314;2023-02-26T03:33:46;-0.40;99.90
40676;DHT22;26359;48.750;9.314;2023-02-26T03:36:18;-0.40;99.90
40676;DHT22;26359;48.750;9.314;2023-02-26T03:39:00;-0.40;99.90
40676;DHT22;26359;48.750;9.314;2023-02-26T03:41:40;-0.50;99.90
40676;DHT22;26359;48.750;9.314;2023-02-26T03:44:11;-0.40;99.90
40676;DHT22;26359;48.750;9.314;2023-02-26T03:46:47;-0.40;99.90
40676;DHT22;26359;48.750;9.314;2023-02-26T03:49:19;-0.50;99.90
40676;DHT22;26359;48.750;9.314;2023-02-26T03:51:46;-0.50;99.90
40676;DHT22;26359;48.750;9.314;2023-02-26T03:54:25;-0.50;99.90
40676;DHT22;26359;48.750;9.314;2023-02-26T03:56:51;-0.50;99.90
40676;DHT22;26359;48.750;9.314;2023-02-26T03:59:17;-0.50;99.90
40676;DHT22;26359;48.750;9.314;2023-02-26T04:02:02;-0.60;99.90
40676;DHT22;26359;48.750;9.314;2023-02-26T04:04:37;-0.60;99.90
40676;DHT22;26359;48.750;9.314;2023-02-26T04:07:10;-0.60;99.90
40676;DHT22;26359;48.750;9.314;2023-02-26T04:09:39;-0.60;99.90
40676;DHT22;26359;48.750;9.314;2023-02-26T04:12:05;-0.60;99.90
40676;DHT22;26359;48.750;9.314;2023-02-26T04:14:31;-0.60;99.90
40676;DHT22;26359;48.750;9.314;2023-02-26T04:16:56;-0.60;99.90
40676;DHT22;26359;48.750;9.314;2023-02-26T04:19:22;-0.70;99.90
40676;DHT22;26359;48.750;9.314;2023-02-26T04:21:47;-0.70;99.90
40676;DHT22;26359;48.750;9.314;2023-02-26T04:24:13;-0.70;99.90
40676;DHT22;26359;48.750;9.314;2023-02-26T04:26:38;-0.70;99.90
40676;DHT22;26359;48.750;9.314;2023-02-26T04:29:04;-0.70;99.90
40676;DHT22;26359;48.750;9.314;2023-02-26T04:31:29;-0.80;99.90
40676;DHT22;26359;48.750;9.314;2023-02-26T04:33:55;-0.70;99.90
40676;DHT22;26359;48.750;9.314;2023-02-26T04:36:20;-0.70;99.90
40676;DHT22;26359;48.750;9.314;2023-02-26T04:38:46;-0.70;99.90
40676;DHT22;26359;48.750;9.314;2023-02-26T04:41:11;-0.80;99.90
40676;DHT22;26359;48.750;9.314;2023-02-26T04:43:37;-0.80;99.90
40676;DHT22;26359;48.750;9.314;2023-02-26T04:46:03;-0.80;99.90
40676;DHT22;26359;48.750;9.314;2023-02-26T04:48:28;-0.80;99.90
40676;DHT22;26359;48.750;9.314;2023-02-26T04:50:54;-0.80;99.90
40676;DHT22;26359;48.750;9.314;2023-02-26T04:53:20;-0.80;99.90
40676;DHT22;26359;48.750;9.314;2023-02-26T04:55:47;-0.90;99.90
40676;DHT22;26359;48.750;9.314;2023-02-26T04:58:13;-0.80;99.90
40676;DHT22;26359;48.750;9.314;2023-02-26T05:00:38;-0.90;99.90
40676;DHT22;26359;48.750;9.314;2023-02-26T05:03:04;-0.90;99.90
40676;DHT22;26359;48.750;9.314;2023-02-26T05:05:30;-0.80;99.90
40676;DHT22;26359;48.750;9.314;2023-02-26T05:07:56;-0.90;99.90
40676;DHT22;26359;48.750;9.314;2023-02-26T05:10:22;-0.90;99.90
40676;DHT22;26359;48.750;9.314;2023-02-26T05:12:48;-0.90;99.90
40676;DHT22;26359;48.750;9.314;2023-02-26T05:15:13;-0.90;99.90
40676;DHT22;26359;48.750;9.314;2023-02-26T05:17:39;-0.90;99.90
40676;DHT22;26359;48.750;9.314;2023-02-26T05:20:05;-1.00;99.90
40676;DHT22;26359;48.750;9.314;2023-02-26T05:22:35;-1.00;99.90
40676;DHT22;26359;48.750;9.314;2023-02-26T05:25:00;-1.00;99.90
40676;DHT22;26359;48.750;9.314;2023-02-26T05:27:26;-1.00;99.90
40676;DHT22;26359;48.750;9.314;2023-02-26T05:29:51;-1.00;99.90
40676;DHT22;26359;48.750;9.314;2023-02-26T05:32:17;-1.10;99.90
40676;DHT22;26359;48.750;9.314;2023-02-26T05:34:43;-1.10;99.90
40676;DHT22;26359;48.750;9.314;2023-02-26T05:37:08;-1.10;99.90
40676;DHT22;26359;48.750;9.314;2023-02-26T05:39:34;-1.10;99.90
40676;DHT22;26359;48.750;9.314;2023-02-26T05:41:59;-1.10;99.90
40676;DHT22;26359;48.750;9.314;2023-02-26T05:44:25;-1.20;99.90
40676;DHT22;26359;48.750;9.314;2023-02-26T05:46:50;-1.20;99.90
40676;DHT22;26359;48.750;9.314;2023-02-26T05:49:16;-1.10;99.90
40676;DHT22;26359;48.750;9.314;2023-02-26T05:51:41;-1.10;99.90
40676;DHT22;26359;48.750;9.314;2023-02-26T05:54:08;-1.10;99.90
40676;DHT22;26359;48.750;9.314;2023-02-26T05:56:34;-1.10;99.90
40676;DHT22;26359;48.750;9.314;2023-02-26T05:59:00;-1.10;99.90
40676;DHT22;26359;48.750;9.314;2023-02-26T06:01:25;-1.20;99.90
40676;DHT22;26359;48.750;9.314;2023-02-26T06:03:51;-1.20;99.90
40676;DHT22;26359;48.750;9.314;2023-02-26T06:06:16;-1.20;99.90
40676;DHT22;26359;48.750;9.314;2023-02-26T06:08:43;-1.20;99.90
40676;DHT22;26359;48.750;9.314;2023-02-26T06:11:09;-1.20;99.90
40676;DHT22;26359;48.750;9.314;2023-02-26T06:13:35;-1.20;99.90
40676;DHT22;26359;48.750;9.314;2023-02-26T06:16:00;-1.20;99.90
40676;DHT22;26359;48.750;9.314;2023-02-26T06:18:26;-1.20;99.90
40676;DHT22;26359;48.750;9.314;2023-02-26T06:20:52;-1.20;99.90
40676;DHT22;26359;48.750;9.314;2023-02-26T06:23:17;-1.10;99.90
40676;DHT22;26359;48.750;9.314;2023-02-26T06:25:43;-1.20;99.90
40676;DHT22;26359;48.750;9.314;2023-02-26T06:28:09;-1.20;99.90
40676;DHT22;26359;48.750;9.314;2023-02-26T06:30:35;-1.20;99.90
40676;DHT22;26359;48.750;9.314;2023-02-26T06:33:00;-1.20;99.90
40676;DHT22;26359;48.750;9.314;2023-02-26T06:35:26;-1.30;99.90
40676;DHT22;26359;48.750;9.314;2023-02-26T06:37:56;-1.30;99.90
40676;DHT22;26359;48.750;9.314;2023-02-26T06:40:22;-1.30;99.90
40676;DHT22;26359;48.750;9.314;2023-02-26T06:42:47;-1.20;99.90
40676;DHT22;26359;48.750;9.314;2023-02-26T06:45:13;-1.20;99.90
40676;DHT22;26359;48.750;9.314;2023-02-26T06:47:39;-1.20;99.90
40676;DHT22;26359;48.750;9.314;2023-02-26T06:50:05;-1.20;99.90
40676;DHT22;26359;48.750;9.314;2023-02-26T06:52:31;-1.20;99.90
40676;DHT22;26359;48.750;9.314;2023-02-26T06:54:57;-1.20;99.90
40676;DHT22;26359;48.750;9.314;2023-02-26T06:57:22;-1.10;99.90
40676;DHT22;26359;48.750;9.314;2023-02-26T06:59:48;-1.20;99.90
40676;DHT22;26359;48.750;9.314;2023-02-26T07:02:19;-1.10;99.90
40676;DHT22;26359;48.750;9.314;2023-02-26T07:04:45;-1.00;99.90
40676;DHT22;26359;48.750;9.314;2023-02-26T07:07:11;-1.00;99.90
40676;DHT22;26359;48.750;9.314;2023-02-26T07:09:37;-1.00;99.90
40676;DHT22;26359;48.750;9.314;2023-02-26T07:12:03;-0.90;99.90
40676;DHT22;26359;48.750;9.314;2023-02-26T07:14:28;-0.80;99.90
40676;DHT22;26359;48.750;9.314;2023-02-26T07:16:54;-0.80;99.90
40676;DHT22;26359;48.750;9.314;2023-02-26T07:19:20;-0.70;99.90
40676;DHT22;26359;48.750;9.314;2023-02-26T07:21:46;-0.70;99.90
40676;DHT22;26359;48.750;9.314;2023-02-26T07:24:13;-0.70;99.90
40676;DHT22;26359;48.750;9.314;2023-02-26T07:26:38;-0.60;99.90
40676;DHT22;26359;48.750;9.314;2023-02-26T07:29:04;-0.50;99.90
40676;DHT22;26359;48.750;9.314;2023-02-26T07:31:30;-0.50;99.90
40676;DHT22;26359;48.750;9.314;2023-02-26T07:33:56;-0.40;99.90
40676;DHT22;26359;48.750;9.314;2023-02-26T07:36:21;-0.40;99.90
40676;DHT22;26359;48.750;9.314;2023-02-26T07:38:47;-0.40;99.90
40676;DHT22;26359;48.750;9.314;2023-02-26T07:41:13;-0.50;99.90
40676;DHT22;26359;48.750;9.314;2023-02-26T07:43:38;-0.50;99.90
40676;DHT22;26359;48.750;9.314;2023-02-26T07:46:04;-0.50;99.90
40676;DHT22;26359;48.750;9.314;2023-02-26T07:48:29;-0.50;99.90
40676;DHT22;26359;48.750;9.314;2023-02-26T07:50:55;-0.50;99.90
40676;DHT22;26359;48.750;9.314;2023-02-26T07:53:21;-0.50;99.90
40676;DHT22;26359;48.750;9.314;2023-02-26T07:55:47;-0.30;99.90
40676;DHT22;26359;48.750;9.314;2023-02-26T07:58:12;-0.30;99.90
40676;DHT22;26359;48.750;9.314;2023-02-26T08:00:38;-0.30;99.90
40676;DHT22;26359;48.750;9.314;2023-02-26T08:03:04;-0.20;99.90
40676;DHT22;26359;48.750;9.314;2023-02-26T08:05:29;-0.20;99.90
40676;DHT22;26359;48.750;9.314;2023-02-26T08:07:55;-0.10;99.90
40676;DHT22;26359;48.750;9.314;2023-02-26T08:10:20;0.00;99.90
40676;DHT22;26359;48.750;9.314;2023-02-26T08:12:46;0.10;99.90
40676;DHT22;26359;48.750;9.314;2023-02-26T08:15:11;0.00;99.90
40676;DHT22;26359;48.750;9.314;2023-02-26T08:17:39;-0.10;99.90
40676;DHT22;26359;48.750;9.314;2023-02-26T08:20:05;-0.10;99.90
40676;DHT22;26359;48.750;9.314;2023-02-26T08:22:31;-0.10;99.90
40676;DHT22;26359;48.750;9.314;2023-02-26T08:24:57;-0.10;99.90
40676;DHT22;26359;48.750;9.314;2023-02-26T08:27:22;0.00;99.90
40676;DHT22;26359;48.750;9.314;2023-02-26T08:29:48;0.10;99.90
40676;DHT22;26359;48.750;9.314;2023-02-26T08:32:15;0.10;99.90
40676;DHT22;26359;48.750;9.314;2023-02-26T08:34:42;0.20;99.90
40676;DHT22;26359;48.750;9.314;2023-02-26T08:37:07;0.20;99.90
40676;DHT22;26359;48.750;9.314;2023-02-26T08:39:36;0.20;99.90
40676;DHT22;26359;48.750;9.314;2023-02-26T08:42:04;0.20;99.90
40676;DHT22;26359;48.750;9.314;2023-02-26T08:44:30;0.20;99.90
40676;DHT22;26359;48.750;9.314;2023-02-26T08:46:55;0.10;99.90
40676;DHT22;26359;48.750;9.314;2023-02-26T08:49:21;0.10;99.90
40676;DHT22;26359;48.750;9.314;2023-02-26T08:51:46;0.00;99.90
40676;DHT22;26359;48.750;9.314;2023-02-26T08:54:12;0.00;99.90
40676;DHT22;26359;48.750;9.314;2023-02-26T08:56:37;0.00;99.90
40676;DHT22;26359;48.750;9.314;2023-02-26T08:59:04;0.00;99.90
40676;DHT22;26359;48.750;9.314;2023-02-26T09:01:30;0.10;99.90
40676;DHT22;26359;48.750;9.314;2023-02-26T09:03:55;0.10;99.90
40676;DHT22;26359;48.750;9.314;2023-02-26T09:06:21;0.20;99.90
40676;DHT22;26359;48.750;9.314;2023-02-26T09:08:46;0.30;99.90
40676;DHT22;26359;48.750;9.314;2023-02-26T09:11:12;0.30;99.90
40676;DHT22;26359;48.750;9.314;2023-02-26T09:13:37;0.30;99.90
40676;DHT22;26359;48.750;9.314;2023-02-26T09:16:03;0.20;99.90
40676;DHT22;26359;48.750;9.314;2023-02-26T09:18:29;0.20;99.90
40676;DHT22;26359;48.750;9.314;2023-02-26T09:20:55;0.30;99.90
40676;DHT22;26359;48.750;9.314;2023-02-26T09:23:20;0.30;99.90
40676;DHT22;26359;48.750;9.314;2023-02-26T09:25:50;0.30;99.90
40676;DHT22;26359;48.750;9.314;2023-02-26T09:28:15;0.30;99.90
40676;DHT22;26359;48.750;9.314;2023-02-26T09:30:41;0.40;99.90
40676;DHT22;26359;48.750;9.314;2023-02-26T09:33:07;0.50;99.90
40676;DHT22;26359;48.750;9.314;2023-02-26T09:35:34;0.60;99.90
40676;DHT22;26359;48.750;9.314;2023-02-26T09:37:59;0.60;99.90
40676;DHT22;26359;48.750;9.314;2023-02-26T09:43:17;0.70;99.90
40676;DHT22;26359;48.750;9.314;2023-02-26T09:45:48;0.70;99.90
40676;DHT22;26359;48.750;9.314;2023-02-26T09:48:17;0.80;99.90
40676;DHT22;26359;48.750;9.314;2023-02-26T09:50:51;0.90;99.90
40676;DHT22;26359;48.750;9.314;2023-02-26T09:53:29;0.90;99.90
40676;DHT22;26359;48.750;9.314;2023-02-26T09:56:03;0.90;99.90
40676;DHT22;26359;48.750;9.314;2023-02-26T09:58:33;0.90;99.90
40676;DHT22;26359;48.750;9.314;2023-02-26T10:04:17;0.90;99.90
40676;DHT22;26359;48.750;9.314;2023-02-26T10:09:37;0.80;99.90
40676;DHT22;26359;48.750;9.314;2023-02-26T10:12:24;0.70;99.90
40676;DHT22;26359;48.750;9.314;2023-02-26T10:14:57;0.60;99.90
40676;DHT22;26359;48.750;9.314;2023-02-26T10:20:09;0.70;99.90
40676;DHT22;26359;48.750;9.314;2023-02-26T10:22:41;0.60;99.90
40676;DHT22;26359;48.750;9.314;2023-02-26T10:25:22;0.70;99.90
40676;DHT22;26359;48.750;9.314;2023-02-26T10:36:27;0.80;99.90
40676;DHT22;26359;48.750;9.314;2023-02-26T10:39:01;0.70;99.90
40676;DHT22;26359;48.750;9.314;2023-02-26T10:41:30;0.80;99.90
40676;DHT22;26359;48.750;9.314;2023-02-26T10:44:08;0.80;99.90
40676;DHT22;26359;48.750;9.314;2023-02-26T10:46:43;0.80;99.90
40676;DHT22;26359;48.750;9.314;2023-02-26T10:49:35;0.80;99.90
40676;DHT22;26359;48.750;9.314;2023-02-26T10:52:14;0.90;99.90
40676;DHT22;26359;48.750;9.314;2023-02-26T10:57:29;1.10;99.90
40676;DHT22;26359;48.750;9.314;2023-02-26T11:00:01;1.20;99.90
40676;DHT22;26359;48.750;9.314;2023-02-26T11:02:42;1.20;99.90
40676;DHT22;26359;48.750;9.314;2023-02-26T11:05:17;1.30;99.90
40676;DHT22;26359;48.750;9.314;2023-02-26T11:07:47;1.30;99.90
40676;DHT22;26359;48.750;9.314;2023-02-26T11:10:17;1.40;99.90
40676;DHT22;26359;48.750;9.314;2023-02-26T11:12:43;1.40;99.90
40676;DHT22;26359;48.750;9.314;2023-02-26T11:15:14;1.50;99.90
40676;DHT22;26359;48.750;9.314;2023-02-26T11:17:41;1.60;99.90
40676;DHT22;26359;48.750;9.314;2023-02-26T11:22:47;2.00;99.90
40676;DHT22;26359;48.750;9.314;2023-02-26T11:25:17;2.10;99.90
40676;DHT22;26359;48.750;9.314;2023-02-26T11:27:43;2.10;99.90
40676;DHT22;26359;48.750;9.314;2023-02-26T11:30:21;1.90;99.90
40676;DHT22;26359;48.750;9.314;2023-02-26T11:32:52;1.80;99.90
40676;DHT22;26359;48.750;9.314;2023-02-26T11:35:19;1.80;99.90
40676;DHT22;26359;48.750;9.314;2023-02-26T11:37:48;1.90;99.90
40676;DHT22;26359;48.750;9.314;2023-02-26T11:40:22;1.90;99.90
40676;DHT22;26359;48.750;9.314;2023-02-26T11:42:57;1.90;99.90
40676;DHT22;26359;48.750;9.314;2023-02-26T11:45:23;1.90;99.90
40676;DHT22;26359;48.750;9.314;2023-02-26T11:48:00;1.80;99.90
40676;DHT22;26359;48.750;9.314;2023-02-26T11:50:27;1.80;99.90
40676;DHT22;26359;48.750;9.314;2023-02-26T11:52:56;1.60;99.90
40676;DHT22;26359;48.750;9.314;2023-02-26T11:55:31;1.70;99.90
40676;DHT22;26359;48.750;9.314;2023-02-26T11:57:57;1.70;99.90
40676;DHT22;26359;48.750;9.314;2023-02-26T12:00:35;1.70;99.90
40676;DHT22;26359;48.750;9.314;2023-02-26T12:03:05;1.60;99.90
40676;DHT22;26359;48.750;9.314;2023-02-26T12:05:32;1.70;99.90
40676;DHT22;26359;48.750;9.314;2023-02-26T12:07:58;1.60;99.90
40676;DHT22;26359;48.750;9.314;2023-02-26T12:10:56;1.60;99.90
40676;DHT22;26359;48.750;9.314;2023-02-26T12:13:37;1.60;99.90
40676;DHT22;26359;48.750;9.314;2023-02-26T12:30:54;2.00;99.90
40676;DHT22;26359;48.750;9.314;2023-02-26T12:39:07;1.80;99.90
40676;DHT22;26359;48.750;9.314;2023-02-26T12:45:15;1.90;99.90
40676;DHT22;26359;48.750;9.314;2023-02-26T12:55:50;2.00;99.90
40676;DHT22;26359;48.750;9.314;2023-02-26T13:09:16;2.00;99.90
40676;DHT22;26359;48.750;9.314;2023-02-26T13:14:34;2.10;99.90
40676;DHT22;26359;48.750;9.314;2023-02-26T13:18:08;2.20;99.90
40676;DHT22;26359;48.750;9.314;2023-02-26T13:20:16;2.20;99.90
40676;DHT22;26359;48.750;9.314;2023-02-26T13:28:09;2.20;99.90
40676;DHT22;26359;48.750;9.314;2023-02-26T13:30:42;2.10;99.90
40676;DHT22;26359;48.750;9.314;2023-02-26T13:33:17;2.10;99.90
40676;DHT22;26359;48.750;9.314;2023-02-26T13:35:44;2.20;99.90
40676;DHT22;26359;48.750;9.314;2023-02-26T13:38:42;2.30;99.90
40676;DHT22;26359;48.750;9.314;2023-02-26T13:41:11;2.40;99.90
40676;DHT22;26359;48.750;9.314;2023-02-26T13:44:00;2.40;99.90
40676;DHT22;26359;48.750;9.314;2023-02-26T13:49:41;3.40;99.90
40676;DHT22;26359;48.750;9.314;2023-02-26T13:52:24;4.00;99.90
40676;DHT22;26359;48.750;9.314;2023-02-26T13:54:49;4.30;99.90
40676;DHT22;26359;48.750;9.314;2023-02-26T13:57:35;4.70;99.90
40676;DHT22;26359;48.750;9.314;2023-02-26T14:00:26;5.10;99.90
40676;DHT22;26359;48.750;9.314;2023-02-26T14:02:53;4.80;99.90
40676;DHT22;26359;48.750;9.314;2023-02-26T14:05:35;4.60;99.90
40676;DHT22;26359;48.750;9.314;2023-02-26T14:16:00;4.00;99.90
40676;DHT22;26359;48.750;9.314;2023-02-26T14:18:35;3.90;99.90
40676;DHT22;26359;48.750;9.314;2023-02-26T14:23:56;3.90;99.90
40676;DHT22;26359;48.750;9.314;2023-02-26T14:26:24;4.00;99.90
40676;DHT22;26359;48.750;9.314;2023-02-26T14:28:56;4.20;99.90
40676;DHT22;26359;48.750;9.314;2023-02-26T14:31:23;4.20;99.90
40676;DHT22;26359;48.750;9.314;2023-02-26T14:34:15;4.30;99.90
40676;DHT22;26359;48.750;9.314;2023-02-26T14:36:48;4.30;99.90
40676;DHT22;26359;48.750;9.314;2023-02-26T14:39:23;4.40;99.90
40676;DHT22;26359;48.750;9.314;2023-02-26T14:41:54;4.70;99.90
40676;DHT22;26359;48.750;9.314;2023-02-26T14:44:25;4.90;99.90
40676;DHT22;26359;48.750;9.314;2023-02-26T14:46:52;5.00;99.90
40676;DHT22;26359;48.750;9.314;2023-02-26T14:49:26;4.80;99.90
40676;DHT22;26359;48.750;9.314;2023-02-26T15:08:37;4.20;99.90
40676;DHT22;26359;48.750;9.314;2023-02-26T15:14:36;4.00;99.90
40676;DHT22;26359;48.750;9.314;2023-02-26T15:17:22;3.90;99.90
40676;DHT22;26359;48.750;9.314;2023-02-26T15:24:58;3.00;99.90
40676;DHT22;26359;48.750;9.314;2023-02-26T15:27:28;2.90;99.90
40676;DHT22;26359;48.750;9.314;2023-02-26T15:29:55;2.80;99.90
40676;DHT22;26359;48.750;9.314;2023-02-26T15:32:24;2.80;99.90
40676;DHT22;26359;48.750;9.314;2023-02-26T15:37:40;2.80;99.90
40676;DHT22;26359;48.750;9.314;2023-02-26T15:40:06;2.90;99.90
40676;DHT22;26359;48.750;9.314;2023-02-26T15:42:39;2.80;99.90
40676;DHT22;26359;48.750;9.314;2023-02-26T15:45:14;2.60;99.90
40676;DHT22;26359;48.750;9.314;2023-02-26T15:47:40;2.60;99.90
40676;DHT22;26359;48.750;9.314;2023-02-26T15:50:06;2.60;99.90
40676;DHT22;26359;48.750;9.314;2023-02-26T15:52:32;2.60;99.90
40676;DHT22;26359;48.750;9.314;2023-02-26T15:55:01;2.50;99.90
40676;DHT22;26359;48.750;9.314;2023-02-26T15:57:27;2.50;99.90
40676;DHT22;26359;48.750;9.314;2023-02-26T16:00:00;2.50;99.90
40676;DHT22;26359;48.750;9.314;2023-02-26T16:02:29;2.40;99.90
40676;DHT22;26359;48.750;9.314;2023-02-26T16:04:55;2.40;99.90
40676;DHT22;26359;48.750;9.314;2023-02-26T16:07:21;2.50;99.90
40676;DHT22;26359;48.750;9.314;2023-02-26T16:09:53;2.50;99.90
40676;DHT22;26359;48.750;9.314;2023-02-26T16:12:20;2.40;99.90
40676;DHT22;26359;48.750;9.314;2023-02-26T16:14:53;2.50;99.90
40676;DHT22;26359;48.750;9.314;2023-02-26T16:17:28;2.40;99.90
40676;DHT22;26359;48.750;9.314;2023-02-26T16:19:56;2.30;99.90
40676;DHT22;26359;48.750;9.314;2023-02-26T16:22:31;2.30;99.90
40676;DHT22;26359;48.750;9.314;2023-02-26T16:25:22;2.20;99.90
40676;DHT22;26359;48.750;9.314;2023-02-26T16:28:01;2.20;99.90
40676;DHT22;26359;48.750;9.314;2023-02-26T16:30:34;2.10;99.90
40676;DHT22;26359;48.750;9.314;2023-02-26T16:33:01;2.10;99.90
40676;DHT22;26359;48.750;9.314;2023-02-26T16:35:31;2.10;99.90
40676;DHT22;26359;48.750;9.314;2023-02-26T16:38:02;2.10;99.90
40676;DHT22;26359;48.750;9.314;2023-02-26T16:40:35;2.10;99.90
40676;DHT22;26359;48.750;9.314;2023-02-26T16:43:05;2.10;99.90
40676;DHT22;26359;48.750;9.314;2023-02-26T16:45:55;2.10;99.90
40676;DHT22;26359;48.750;9.314;2023-02-26T16:51:09;2.10;99.90
40676;DHT22;26359;48.750;9.314;2023-02-26T16:53:46;2.00;99.90
40676;DHT22;26359;48.750;9.314;2023-02-26T16:56:17;1.90;99.90
40676;DHT22;26359;48.750;9.314;2023-02-26T16:58:48;1.90;99.90
40676;DHT22;26359;48.750;9.314;2023-02-26T17:01:17;1.80;99.90
40676;DHT22;26359;48.750;9.314;2023-02-26T17:03:49;1.70;99.90
40676;DHT22;26359;48.750;9.314;2023-02-26T17:06:16;1.70;99.90
40676;DHT22;26359;48.750;9.314;2023-02-26T17:08:50;1.60;99.90
40676;DHT22;26359;48.750;9.314;2023-02-26T17:11:28;1.60;99.90
40676;DHT22;26359;48.750;9.314;2023-02-26T17:16:47;1.50;99.90
40676;DHT22;26359;48.750;9.314;2023-02-26T17:19:13;1.50;99.90
40676;DHT22;26359;48.750;9.314;2023-02-26T17:21:51;1.40;99.90
40676;DHT22;26359;48.750;9.314;2023-02-26T17:24:28;1.40;99.90
40676;DHT22;26359;48.750;9.314;2023-02-26T17:26:54;1.40;99.90
40676;DHT22;26359;48.750;9.314;2023-02-26T17:29:35;1.30;99.90
40676;DHT22;26359;48.750;9.314;2023-02-26T17:32:03;1.30;99.90
40676;DHT22;26359;48.750;9.314;2023-02-26T17:34:29;1.30;99.90
40676;DHT22;26359;48.750;9.314;2023-02-26T17:36:55;1.30;99.90
40676;DHT22;26359;48.750;9.314;2023-02-26T17:39:22;1.30;99.90
40676;DHT22;26359;48.750;9.314;2023-02-26T17:41:47;1.20;99.90
40676;DHT22;26359;48.750;9.314;2023-02-26T17:44:13;1.20;99.90
40676;DHT22;26359;48.750;9.314;2023-02-26T17:46:39;1.20;99.90
40676;DHT22;26359;48.750;9.314;2023-02-26T17:49:05;1.20;99.90
40676;DHT22;26359;48.750;9.314;2023-02-26T17:51:30;1.20;99.90
40676;DHT22;26359;48.750;9.314;2023-02-26T17:53:56;1.10;99.90
40676;DHT22;26359;48.750;9.314;2023-02-26T17:56:29;1.10;99.90
40676;DHT22;26359;48.750;9.314;2023-02-26T17:58:56;1.10;99.90
40676;DHT22;26359;48.750;9.314;2023-02-26T18:01:24;1.10;99.90
40676;DHT22;26359;48.750;9.314;2023-02-26T18:03:52;1.00;99.90
40676;DHT22;26359;48.750;9.314;2023-02-26T18:06:19;1.00;99.90
40676;DHT22;26359;48.750;9.314;2023-02-26T18:08:45;1.00;99.90
40676;DHT22;26359;48.750;9.314;2023-02-26T18:11:13;1.00;99.90
40676;DHT22;26359;48.750;9.314;2023-02-26T18:13:39;0.90;99.90
40676;DHT22;26359;48.750;9.314;2023-02-26T18:16:05;0.90;99.90
40676;DHT22;26359;48.750;9.314;2023-02-26T18:18:31;0.90;99.90
40676;DHT22;26359;48.750;9.314;2023-02-26T18:20:58;0.90;99.90
40676;DHT22;26359;48.750;9.314;2023-02-26T18:23:23;0.80;99.90
40676;DHT22;26359;48.750;9.314;2023-02-26T18:25:51;0.80;99.90
40676;DHT22;26359;48.750;9.314;2023-02-26T18:28:26;0.80;99.90
40676;DHT22;26359;48.750;9.314;2023-02-26T18:30:52;0.80;99.90